Time;durP1;ratioP1;P1;durP2;ratioP2;P2;SDS_P1;SDS_P2;PMS_P1;PMS_P2;Temp;Humidity;BMP_temperature;BMP_pressure;BME280_temperature;BME280_humidity;BME280_pressure;Samples;Min_cycle;Max_cycle;Signal;HPM_P1;HPM_P2
2022/01/23 00:02:49;;;;;;;;;;;;;;;2.70;68.26;101005.59;1728755;81;20170;-82
2022/01/23 00:05:21;;;;;;;;;;;;;;;2.62;68.29;100999.97;1742216;81;20140;-83
2022/01/23 00:07:52;;;;;;;;;;;;;;;2.48;68.69;100992.89;1709507;81;21480;-81
2022/01/23 00:10:19;;;;;;;;;;;;;;;2.73;68.03;100994.99;1715322;81;20129;-87
2022/01/23 00:12:50;;;;;;;;;;;;;;;2.75;67.86;100998.38;1740866;81;20169;-81
2022/01/23 00:17:57;;;;;;;;;;;;;;;2.61;68.14;101006.09;1739733;81;20197;-85
2022/01/23 00:20:23;;;;;;;;;;;;;;;2.66;68.26;101014.53;1747297;81;21097;-83
2022/01/23 00:22:58;;;;;;;;;;;;;;;2.47;68.71;101005.09;1730119;81;20783;-85
2022/01/23 00:30:48;;;;;;;;;;;;;;;2.48;69.05;101009.36;1726448;81;20234;-82
2022/01/23 00:33:15;;;;;;;;;;;;;;;2.48;69.05;101002.84;1739266;81;20142;-84
2022/01/23 00:35:42;;;;;;;;;;;;;;;2.29;69.83;101004.77;1744261;80;20463;-88
2022/01/23 00:38:10;;;;;;;;;;;;;;;2.50;69.32;100995.80;1739527;81;20192;-82
2022/01/23 00:40:36;;;;;;;;;;;;;;;2.41;69.70;100992.83;1748911;81;20191;-81
2022/01/23 00:43:08;;;;;;;;;;;;;;;2.34;70.02;100993.63;1739581;81;20172;-82
2022/01/23 00:45:34;;;;;;;;;;;;;;;2.25;70.57;101012.37;1740652;81;20204;-82
2022/01/23 00:48:08;;;;;;;;;;;;;;;2.45;70.09;101000.41;1739843;80;20177;-86
2022/01/23 00:50:36;;;;;;;;;;;;;;;2.55;69.72;101006.42;1736757;81;20195;-81
2022/01/23 00:53:10;;;;;;;;;;;;;;;2.64;69.49;100997.66;1735753;81;20246;-90
2022/01/23 00:55:41;;;;;;;;;;;;;;;2.48;69.91;101003.32;1741345;81;20123;-91
2022/01/23 00:58:06;;;;;;;;;;;;;;;2.55;70.23;101002.08;1744210;81;21153;-86
2022/01/23 01:00:33;;;;;;;;;;;;;;;2.57;70.04;101009.81;1722160;81;20208;-86
2022/01/23 01:03:03;;;;;;;;;;;;;;;2.61;69.98;100995.66;1740541;80;20144;-85
2022/01/23 01:05:28;;;;;;;;;;;;;;;2.67;70.05;101000.55;1746307;81;20230;-87
2022/01/23 01:07:56;;;;;;;;;;;;;;;2.58;70.38;100995.83;1735602;81;20124;-82
2022/01/23 01:10:34;;;;;;;;;;;;;;;2.70;70.02;101002.98;1738973;81;21125;-83
2022/01/23 01:12:56;;;;;;;;;;;;;;;2.94;69.34;101001.27;1721970;81;20134;-83
2022/01/23 01:16:00;;;;;;;;;;;;;;;2.86;69.72;101015.57;1738812;81;20158;-82
2022/01/23 01:32:02;;;;;;;;;;;;;;;3.04;69.67;101011.55;1727215;81;20997;-85
2022/01/23 01:34:33;;;;;;;;;;;;;;;2.83;70.10;101022.27;1737054;81;20143;-82
2022/01/23 01:36:53;;;;;;;;;;;;;;;2.83;70.34;101030.09;1736671;81;20202;-81
2022/01/23 01:39:24;;;;;;;;;;;;;;;2.71;70.78;101026.02;1738261;80;20266;-85
2022/01/23 01:41:51;;;;;;;;;;;;;;;2.85;70.42;101026.92;1754749;81;20196;-81
2022/01/23 01:44:17;;;;;;;;;;;;;;;2.85;70.53;101028.22;1763392;81;20179;-83
2022/01/23 01:46:43;;;;;;;;;;;;;;;2.80;70.63;101032.03;1752213;81;20175;-82
2022/01/23 01:49:08;;;;;;;;;;;;;;;2.81;70.80;101044.98;1757736;81;21793;-83
2022/01/23 01:51:34;;;;;;;;;;;;;;;2.88;70.71;101025.45;1727712;81;20150;-82
2022/01/23 01:54:15;;;;;;;;;;;;;;;2.78;71.12;101026.90;1754977;80;20171;-83
2022/01/23 01:56:46;;;;;;;;;;;;;;;2.79;71.15;101025.95;1748989;81;20114;-80
2022/01/23 02:09:30;;;;;;;;;;;;;;;2.79;71.40;101032.47;1729178;81;20171;-79
2022/01/23 02:12:28;;;;;;;;;;;;;;;2.60;72.30;101033.11;1750496;81;20141;-80
2022/01/23 02:23:24;;;;;;;;;;;;;;;2.78;71.95;101019.08;1743773;80;20483;-81
2022/01/23 02:50:43;;;;;;;;;;;;;;;2.93;71.61;101030.88;1712329;83;20129;-80
2022/01/23 02:55:49;;;;;;;;;;;;;;;2.75;72.36;101059.67;1715344;82;20209;-82
2022/01/23 02:58:18;;;;;;;;;;;;;;;2.99;71.71;101042.28;1708729;83;20317;-79
2022/01/23 03:01:10;;;;;;;;;;;;;;;2.77;71.95;101044.77;1711155;82;20699;-81
2022/01/23 03:03:23;;;;;;;;;;;;;;;2.96;71.74;101050.28;1729289;81;20446;-81
2022/01/23 03:05:46;;;;;;;;;;;;;;;2.90;71.77;101050.62;1722500;82;20190;-84
2022/01/23 03:08:30;;;;;;;;;;;;;;;2.93;71.76;101053.06;1724193;82;21190;-82
2022/01/23 03:11:03;;;;;;;;;;;;;;;2.97;71.71;101066.33;1723439;81;20116;-80
2022/01/23 03:13:43;;;;;;;;;;;;;;;2.67;72.66;101059.22;1725349;82;20128;-80
2022/01/23 03:26:35;;;;;;;;;;;;;;;3.15;71.21;101083.55;1715960;83;20123;-84
2022/01/23 03:32:00;;;;;;;;;;;;;;;2.93;72.03;101100.02;1712354;83;20837;-81
2022/01/23 03:34:13;;;;;;;;;;;;;;;2.71;72.58;101117.30;1715080;83;20191;-81
2022/01/23 03:36:39;;;;;;;;;;;;;;;3.01;71.91;101106.48;1705971;82;20853;-81
2022/01/23 03:39:10;;;;;;;;;;;;;;;2.65;72.91;101114.54;1715098;82;20169;-81
2022/01/23 03:41:38;;;;;;;;;;;;;;;2.62;73.00;101114.70;1720495;81;20501;-81
2022/01/23 03:44:06;;;;;;;;;;;;;;;2.91;72.30;101119.67;1748427;81;20181;-81
2022/01/23 03:51:51;;;;;;;;;;;;;;;3.01;71.68;101118.70;1752407;81;20166;-83
2022/01/23 03:54:20;;;;;;;;;;;;;;;2.96;71.73;101122.86;1746562;81;20170;-85
2022/01/23 03:56:47;;;;;;;;;;;;;;;2.79;72.07;101126.84;1750951;81;20212;-83
2022/01/23 03:59:15;;;;;;;;;;;;;;;2.90;71.99;101124.50;1749196;81;22220;-82
2022/01/23 04:01:41;;;;;;;;;;;;;;;3.05;71.40;101125.45;1752780;81;20109;-82
2022/01/23 04:04:24;;;;;;;;;;;;;;;2.98;71.71;101125.39;1747669;81;20164;-84
2022/01/23 04:06:36;;;;;;;;;;;;;;;3.13;71.33;101127.16;1749188;81;20144;-82
2022/01/23 04:09:01;;;;;;;;;;;;;;;3.28;71.07;101124.63;1753958;81;20134;-81
2022/01/23 04:11:29;;;;;;;;;;;;;;;3.14;71.19;101131.91;1749512;81;21952;-82
2022/01/23 04:14:04;;;;;;;;;;;;;;;3.30;70.61;101129.32;1756096;81;20174;-85
2022/01/23 04:19:35;;;;;;;;;;;;;;;3.39;70.61;101142.70;1746559;81;20197;-87
2022/01/23 04:49:07;;;;;;;;;;;;;;;4.08;67.75;101160.60;1650627;85;20193;-80
2022/01/23 05:04:36;;;;;;;;;;;;;;;4.03;68.10;101146.50;1722180;81;20209;-83
2022/01/23 05:07:07;;;;;;;;;;;;;;;3.78;68.84;101160.14;1724255;81;20205;-85
2022/01/23 05:09:33;;;;;;;;;;;;;;;3.75;69.00;101157.22;1723466;82;21228;-83
2022/01/23 05:12:06;;;;;;;;;;;;;;;3.55;69.40;101166.18;1721176;82;20123;-83
2022/01/23 05:14:37;;;;;;;;;;;;;;;3.94;68.68;101162.23;1700357;84;20132;-83
2022/01/23 05:17:04;;;;;;;;;;;;;;;3.95;68.57;101167.84;1724061;82;20140;-83
2022/01/23 05:19:32;;;;;;;;;;;;;;;3.95;68.56;101166.53;1695473;82;20133;-82
2022/01/23 05:24:38;;;;;;;;;;;;;;;3.82;69.22;101182.52;1699586;82;20164;-84
2022/01/23 05:27:05;;;;;;;;;;;;;;;3.85;69.08;101179.73;1719814;82;20140;-82
2022/01/23 05:29:31;;;;;;;;;;;;;;;3.94;68.72;101181.83;1722608;82;21192;-84
2022/01/23 05:31:59;;;;;;;;;;;;;;;3.99;68.55;101180.26;1725248;82;20551;-87
2022/01/23 05:34:28;;;;;;;;;;;;;;;4.04;68.62;101193.92;1706243;82;20236;-81
2022/01/23 05:36:53;;;;;;;;;;;;;;;3.89;68.81;101194.33;1712053;81;20226;-82
2022/01/23 05:39:22;;;;;;;;;;;;;;;3.94;68.87;101198.81;1716033;81;20183;-83
2022/01/23 05:41:58;;;;;;;;;;;;;;;3.71;69.01;101190.14;1727108;80;20198;-84
2022/01/23 05:44:17;;;;;;;;;;;;;;;3.88;68.83;101191.33;1755777;80;20165;-82
2022/01/23 05:46:44;;;;;;;;;;;;;;;3.71;69.39;101199.28;1758716;80;20165;-82
2022/01/23 05:49:12;;;;;;;;;;;;;;;3.77;69.01;101204.16;1762167;80;20127;-82
2022/01/23 05:51:37;;;;;;;;;;;;;;;3.61;70.04;101204.66;1751549;80;20127;-87
2022/01/23 05:54:08;;;;;;;;;;;;;;;3.70;69.38;101213.29;1746532;80;20992;-83
2022/01/23 05:56:37;;;;;;;;;;;;;;;3.90;69.25;101216.92;1740679;80;20333;-84
2022/01/23 05:59:04;;;;;;;;;;;;;;;4.29;68.21;101216.87;1754967;80;20193;-86
2022/01/23 06:01:31;;;;;;;;;;;;;;;4.15;68.43;101210.30;1760815;80;20699;-84
2022/01/23 06:03:57;;;;;;;;;;;;;;;4.06;68.62;101214.75;1737541;81;20550;-86
2022/01/23 06:06:23;;;;;;;;;;;;;;;4.11;68.16;101223.16;1735469;81;21071;-83
2022/01/23 06:08:50;;;;;;;;;;;;;;;4.14;67.55;101238.67;1738547;81;21118;-84
2022/01/23 06:11:18;;;;;;;;;;;;;;;4.18;67.69;101220.58;1734578;81;20141;-84
2022/01/23 06:13:44;;;;;;;;;;;;;;;3.95;67.27;101202.30;1737175;80;20229;-87
2022/01/23 06:16:11;;;;;;;;;;;;;;;4.06;67.54;101240.89;1739727;81;20165;-87
2022/01/23 06:18:40;;;;;;;;;;;;;;;4.09;67.46;101248.55;1734013;81;21075;-87
2022/01/23 06:21:07;;;;;;;;;;;;;;;4.00;67.50;101256.44;1742656;81;20216;-84
2022/01/23 06:23:32;;;;;;;;;;;;;;;3.97;67.05;101252.69;1737711;81;20137;-83
2022/01/23 06:25:58;;;;;;;;;;;;;;;3.76;67.47;101263.42;1737908;80;20157;-84
2022/01/23 06:28:33;;;;;;;;;;;;;;;4.01;67.20;101263.80;1738195;80;20196;-85
2022/01/23 06:30:59;;;;;;;;;;;;;;;4.11;67.08;101267.59;1732433;81;21108;-82
2022/01/23 06:33:24;;;;;;;;;;;;;;;4.10;66.62;101271.13;1734227;81;20182;-82
2022/01/23 06:35:50;;;;;;;;;;;;;;;4.18;66.57;101274.63;1744632;81;20181;-84
2022/01/23 06:38:16;;;;;;;;;;;;;;;4.25;66.73;101274.19;1734012;81;20284;-83
2022/01/23 06:40:44;;;;;;;;;;;;;;;4.33;66.61;101272.91;1739967;81;20197;-85
2022/01/23 06:43:14;;;;;;;;;;;;;;;4.18;66.77;101272.87;1742657;81;20119;-82
2022/01/23 06:45:41;;;;;;;;;;;;;;;4.07;67.22;101281.31;1728332;81;20650;-86
2022/01/23 06:48:06;;;;;;;;;;;;;;;4.01;67.40;101280.80;1732861;81;20208;-88
2022/01/23 06:50:36;;;;;;;;;;;;;;;4.15;67.25;101280.89;1732026;81;20142;-85
2022/01/23 06:53:01;;;;;;;;;;;;;;;4.10;67.30;101285.50;1729041;81;20292;-83
2022/01/23 06:55:27;;;;;;;;;;;;;;;4.03;67.48;101292.03;1734438;81;21865;-82
2022/01/23 06:57:54;;;;;;;;;;;;;;;3.99;67.87;101294.42;1734913;81;20152;-83
2022/01/23 07:00:19;;;;;;;;;;;;;;;4.06;67.73;101294.47;1740988;81;20220;-82
2022/01/23 07:02:47;;;;;;;;;;;;;;;4.02;67.71;101305.54;1739307;81;20488;-81
2022/01/23 07:05:12;;;;;;;;;;;;;;;4.13;67.38;101307.55;1728240;81;20217;-83
2022/01/23 07:07:38;;;;;;;;;;;;;;;4.19;67.17;101322.06;1744794;81;21089;-83
2022/01/23 07:10:04;;;;;;;;;;;;;;;4.22;66.96;101322.73;1746565;80;20639;-82
2022/01/23 07:12:29;;;;;;;;;;;;;;;4.18;67.05;101326.46;1747589;80;20176;-81
2022/01/23 07:14:55;;;;;;;;;;;;;;;4.20;67.12;101333.75;1744426;81;20440;-82
2022/01/23 07:17:21;;;;;;;;;;;;;;;4.02;67.40;101338.69;1738709;81;20147;-82
2022/01/23 07:19:47;;;;;;;;;;;;;;;4.13;66.82;101338.92;1735500;80;21111;-86
2022/01/23 07:22:13;;;;;;;;;;;;;;;4.19;66.57;101345.13;1733531;81;20822;-82
2022/01/23 07:24:38;;;;;;;;;;;;;;;4.04;67.24;101349.89;1733976;81;20201;-83
2022/01/23 07:27:13;;;;;;;;;;;;;;;4.14;66.79;101348.47;1739650;81;20141;-84
2022/01/23 07:29:32;;;;;;;;;;;;;;;4.27;66.08;101353.84;1735309;81;21048;-82
2022/01/23 07:31:59;;;;;;;;;;;;;;;4.08;65.90;101356.64;1736314;80;21063;-88
2022/01/23 07:34:25;;;;;;;;;;;;;;;4.20;65.92;101358.58;1737067;81;20157;-82
2022/01/23 07:36:50;;;;;;;;;;;;;;;4.33;64.61;101365.75;1734956;81;20161;-82
2022/01/23 07:39:16;;;;;;;;;;;;;;;4.44;64.12;101363.36;1745930;81;20275;-82
2022/01/23 07:41:42;;;;;;;;;;;;;;;4.45;63.47;101365.06;1731314;81;20455;-83
2022/01/23 07:44:07;;;;;;;;;;;;;;;4.30;62.61;101375.45;1731269;81;21159;-81
2022/01/23 07:46:33;;;;;;;;;;;;;;;4.34;62.06;101381.83;1754031;80;20306;-82
2022/01/23 07:48:58;;;;;;;;;;;;;;;4.33;61.69;101376.20;1749142;80;20191;-81
2022/01/23 07:51:24;;;;;;;;;;;;;;;4.29;61.67;101389.45;1749050;81;20122;-81
2022/01/23 07:53:50;;;;;;;;;;;;;;;4.29;61.53;101398.60;1749569;81;20183;-83
2022/01/23 07:56:15;;;;;;;;;;;;;;;4.45;61.60;101401.67;1744760;80;21063;-82
2022/01/23 07:58:41;;;;;;;;;;;;;;;4.42;60.92;101402.68;1751506;81;20340;-83
2022/01/23 08:01:06;;;;;;;;;;;;;;;4.61;60.79;101409.50;1741800;81;20144;-82
2022/01/23 08:03:32;;;;;;;;;;;;;;;4.52;61.22;101417.86;1747054;81;20153;-83
2022/01/23 08:05:58;;;;;;;;;;;;;;;4.35;60.91;101420.97;1747125;81;20161;-82
2022/01/23 08:08:23;;;;;;;;;;;;;;;4.42;61.06;101424.08;1745488;81;21103;-82
2022/01/23 08:10:49;;;;;;;;;;;;;;;4.50;60.83;101431.03;1750906;80;20143;-84
2022/01/23 08:13:14;;;;;;;;;;;;;;;4.47;60.59;101439.05;1751799;81;20158;-82
2022/01/23 08:15:40;;;;;;;;;;;;;;;4.57;60.20;101448.08;1746676;80;20575;-87
2022/01/23 08:18:07;;;;;;;;;;;;;;;4.49;59.82;101453.73;1751429;80;20188;-88
2022/01/23 08:20:35;;;;;;;;;;;;;;;4.47;59.50;101444.27;1741910;81;21087;-83
2022/01/23 08:23:02;;;;;;;;;;;;;;;4.36;59.36;101444.03;1750350;80;20150;-83
2022/01/23 08:25:28;;;;;;;;;;;;;;;4.56;59.35;101442.45;1750861;80;20641;-82
2022/01/23 08:27:57;;;;;;;;;;;;;;;4.25;59.27;101445.45;1744419;80;20190;-83
2022/01/23 08:30:23;;;;;;;;;;;;;;;4.34;59.61;101445.89;1741736;81;20145;-81
2022/01/23 08:32:50;;;;;;;;;;;;;;;4.22;58.76;101448.23;1744999;81;21084;-81
2022/01/23 08:35:19;;;;;;;;;;;;;;;4.31;58.59;101450.34;1743960;81;20106;-82
2022/01/23 08:37:48;;;;;;;;;;;;;;;4.23;58.46;101449.92;1748045;81;20138;-81
2022/01/23 08:40:21;;;;;;;;;;;;;;;4.26;57.74;101439.30;1748469;81;20986;-83
2022/01/23 08:42:44;;;;;;;;;;;;;;;4.26;57.33;101447.14;1743336;81;20130;-87
2022/01/23 08:45:10;;;;;;;;;;;;;;;4.26;57.60;101444.53;1706751;82;21016;-86
2022/01/23 08:47:38;;;;;;;;;;;;;;;4.27;57.49;101454.07;1733071;81;20266;-85
2022/01/23 08:50:07;;;;;;;;;;;;;;;4.15;57.69;101462.58;1727321;81;20221;-83
2022/01/23 08:52:33;;;;;;;;;;;;;;;4.05;57.38;101471.82;1716313;82;20114;-82
2022/01/23 08:55:00;;;;;;;;;;;;;;;4.01;57.57;101476.81;1717271;82;20245;-83
2022/01/23 08:57:25;;;;;;;;;;;;;;;3.81;58.12;101477.86;1718570;83;21298;-85
2022/01/23 08:59:51;;;;;;;;;;;;;;;3.92;57.65;101482.92;1707792;82;20149;-84
2022/01/23 09:02:20;;;;;;;;;;;;;;;4.08;57.30;101490.79;1710816;82;20712;-87
2022/01/23 09:04:47;;;;;;;;;;;;;;;4.07;57.89;101496.09;1716327;82;20118;-86
2022/01/23 09:07:15;;;;;;;;;;;;;;;4.14;57.36;101499.62;1717926;82;20170;-87
2022/01/23 09:09:44;;;;;;;;;;;;;;;4.28;57.24;101512.44;1719587;82;21878;-86
2022/01/23 09:14:43;;;;;;;;;;;;;;;4.18;57.17;101513.39;1718900;81;20114;-84
2022/01/23 09:17:10;;;;;;;;;;;;;;;4.26;57.06;101513.82;1717396;81;20376;-82
2022/01/23 09:19:39;;;;;;;;;;;;;;;3.89;57.48;101524.06;1718099;81;20157;-84
2022/01/23 09:22:04;;;;;;;;;;;;;;;4.13;57.10;101514.08;1707542;82;21209;-86
2022/01/23 09:24:30;;;;;;;;;;;;;;;4.21;56.58;101522.38;1716851;83;20906;-85
2022/01/23 09:27:03;;;;;;;;;;;;;;;4.24;56.41;101523.53;1698585;83;20189;-86
2022/01/23 09:29:34;;;;;;;;;;;;;;;4.12;56.34;101520.25;1726255;81;20135;-85
2022/01/23 09:31:58;;;;;;;;;;;;;;;4.17;55.89;101515.62;1721619;83;20157;-83
2022/01/23 09:34:28;;;;;;;;;;;;;;;4.00;55.56;101515.66;1717830;82;21077;-84
2022/01/23 09:36:56;;;;;;;;;;;;;;;4.04;55.25;101528.94;1715423;83;20235;-84
2022/01/23 09:39:24;;;;;;;;;;;;;;;4.15;55.10;101530.55;1718621;82;20202;-86
2022/01/23 09:41:55;;;;;;;;;;;;;;;3.94;55.27;101535.94;1718229;82;20164;-85
2022/01/23 09:44:21;;;;;;;;;;;;;;;3.97;55.46;101538.03;1723814;82;20315;-86
2022/01/23 09:46:49;;;;;;;;;;;;;;;4.00;55.39;101540.50;1730930;81;21101;-85
2022/01/23 09:49:16;;;;;;;;;;;;;;;4.06;55.38;101536.25;1709520;81;20158;-86
2022/01/23 09:51:45;;;;;;;;;;;;;;;4.22;55.57;101538.43;1731079;81;20155;-86
2022/01/23 09:54:13;;;;;;;;;;;;;;;4.36;55.41;101534.25;1726763;83;20651;-85
2022/01/23 09:56:42;;;;;;;;;;;;;;;4.14;54.92;101534.91;1725565;81;20126;-88
2022/01/23 09:59:11;;;;;;;;;;;;;;;3.91;54.86;101541.33;1729708;82;20158;-84
2022/01/23 10:01:40;;;;;;;;;;;;;;;3.86;55.35;101538.11;1724884;82;20516;-83
2022/01/23 10:04:09;;;;;;;;;;;;;;;4.20;55.09;101531.14;1711348;81;20654;-82
2022/01/23 10:06:37;;;;;;;;;;;;;;;4.27;55.05;101532.52;1725504;82;20110;-84
2022/01/23 10:09:06;;;;;;;;;;;;;;;4.16;55.09;101528.77;1724489;81;20187;-85
2022/01/23 10:11:35;;;;;;;;;;;;;;;4.02;55.41;101532.10;1731062;81;20158;-85
2022/01/23 10:13:58;;;;;;;;;;;;;;;4.20;55.28;101523.30;1727712;81;20295;-85
2022/01/23 10:16:26;;;;;;;;;;;;;;;3.71;55.82;101519.30;1727024;82;20291;-87
2022/01/23 10:18:56;;;;;;;;;;;;;;;3.88;55.54;101520.58;1702492;82;20202;-87
2022/01/23 10:21:22;;;;;;;;;;;;;;;3.97;55.47;101506.67;1730176;81;20495;-85
2022/01/23 10:23:50;;;;;;;;;;;;;;;4.14;55.41;101519.70;1731463;81;21179;-85
2022/01/23 10:26:36;;;;;;;;;;;;;;;4.04;55.03;101522.40;1727792;82;20138;-82
2022/01/23 10:29:15;;;;;;;;;;;;;;;4.04;54.91;101523.27;1729248;83;20130;-85
2022/01/23 10:32:26;;;;;;;;;;;;;;;4.01;54.78;101525.17;1718960;82;20217;-82
2022/01/23 10:34:56;;;;;;;;;;;;;;;3.89;54.57;101530.12;1730496;81;36471;-86
2022/01/23 10:37:30;;;;;;;;;;;;;;;3.83;54.66;101527.82;1728323;80;21291;-84
2022/01/23 10:39:56;;;;;;;;;;;;;;;3.99;54.63;101539.63;1732217;80;20129;-85
2022/01/23 10:42:49;;;;;;;;;;;;;;;3.93;54.57;101531.66;1729585;81;20115;-85
2022/01/23 10:47:48;;;;;;;;;;;;;;;3.90;54.69;101535.73;1742427;82;20169;-85
2022/01/23 10:50:06;;;;;;;;;;;;;;;3.86;54.71;101538.11;1732419;82;20180;-82
2022/01/23 10:52:40;;;;;;;;;;;;;;;3.98;53.85;101541.02;1740068;82;20122;-84
2022/01/23 10:55:24;;;;;;;;;;;;;;;3.85;53.85;101539.03;1738384;82;20203;-81
2022/01/23 10:57:54;;;;;;;;;;;;;;;4.09;53.84;101538.71;1735514;80;20233;-84
2022/01/23 11:00:33;;;;;;;;;;;;;;;4.02;53.12;101551.70;1737692;82;20512;-83
2022/01/23 11:03:02;;;;;;;;;;;;;;;3.98;53.27;101543.62;1765027;79;21074;-84
2022/01/23 11:05:36;;;;;;;;;;;;;;;3.97;52.71;101540.66;1739255;80;20149;-81
2022/01/23 11:08:01;;;;;;;;;;;;;;;4.14;52.80;101540.14;1740540;81;20212;-81
2022/01/23 11:10:32;;;;;;;;;;;;;;;4.35;52.69;101533.86;1744609;81;20718;-82
2022/01/23 11:18:38;;;;;;;;;;;;;;;4.36;52.89;101531.64;1738247;81;20140;-86
2022/01/23 11:21:15;;;;;;;;;;;;;;;4.21;53.07;101539.81;1737002;81;20153;-81
2022/01/23 11:23:44;;;;;;;;;;;;;;;4.11;53.25;101536.85;1738104;81;20260;-84
2022/01/23 11:26:13;;;;;;;;;;;;;;;4.28;53.09;101536.80;1743787;81;20183;-81
2022/01/23 11:28:43;;;;;;;;;;;;;;;4.27;52.97;101549.52;1736174;81;20482;-83
2022/01/23 11:31:12;;;;;;;;;;;;;;;4.35;53.01;101546.94;1769305;80;20140;-84
2022/01/23 11:33:41;;;;;;;;;;;;;;;4.50;52.75;101548.73;1760195;79;20206;-87
2022/01/23 11:36:07;;;;;;;;;;;;;;;4.58;52.57;101545.23;1763624;80;20516;-85
2022/01/23 11:38:35;;;;;;;;;;;;;;;4.33;52.46;101543.57;1717271;82;20808;-84
2022/01/23 11:54:48;;;;;;;;;;;;;;;4.41;51.93;101562.30;1739021;80;20175;-79
2022/01/23 11:57:45;;;;;;;;;;;;;;;4.36;51.93;101560.41;1732596;80;20289;-78
2022/01/23 12:00:19;;;;;;;;;;;;;;;4.62;51.96;101561.64;1736633;82;20166;-81
2022/01/23 12:03:05;;;;;;;;;;;;;;;4.39;51.80;101561.55;1737683;82;20170;-77
2022/01/23 12:05:37;;;;;;;;;;;;;;;4.59;51.94;101569.17;1716664;82;20186;-78
2022/01/23 12:08:34;;;;;;;;;;;;;;;4.59;51.93;101571.80;1720862;82;21020;-79
2022/01/23 12:11:24;;;;;;;;;;;;;;;4.48;51.58;101568.91;1726990;82;20138;-79
2022/01/23 12:16:37;;;;;;;;;;;;;;;;;;;;;
2022/01/23 12:18:54;;;;;;;;;;;;;;;4.89;50.98;101571.05;1713483;82;20499;-81
2022/01/23 12:21:30;;;;;;;;;;;;;;;4.97;50.76;101574.11;1727168;82;20519;-79
2022/01/23 12:24:01;;;;;;;;;;;;;;;4.86;50.25;101577.76;1734537;80;20424;-78
2022/01/23 12:26:26;;;;;;;;;;;;;;;4.73;50.61;101578.06;1734698;82;20190;-76
2022/01/23 12:28:52;;;;;;;;;;;;;;;4.90;50.50;101582.39;1730250;82;20162;-77
2022/01/23 12:31:22;;;;;;;;;;;;;;;4.86;50.22;101581.69;1729697;82;20281;-78
2022/01/23 12:33:49;;;;;;;;;;;;;;;4.77;50.12;101584.80;1736382;82;20159;-79
2022/01/23 12:36:25;;;;;;;;;;;;;;;4.81;50.06;101581.10;1728145;80;20146;-79
2022/01/23 12:38:53;;;;;;;;;;;;;;;4.84;50.20;101588.31;1729889;80;20227;-78
2022/01/23 12:41:36;;;;;;;;;;;;;;;4.88;49.73;101595.55;1720681;82;20201;-77
2022/01/23 12:44:09;;;;;;;;;;;;;;;4.90;49.79;101597.61;1716083;82;20139;-80
2022/01/23 12:46:39;;;;;;;;;;;;;;;5.16;49.56;101599.28;1726836;82;21018;-81
2022/01/23 12:49:28;;;;;;;;;;;;;;;5.00;49.28;101601.43;1729460;82;20228;-79
2022/01/23 12:52:12;;;;;;;;;;;;;;;5.09;49.15;101605.77;1738149;82;20958;-79
2022/01/23 12:54:55;;;;;;;;;;;;;;;4.91;49.20;101613.71;1734241;82;20244;-84
2022/01/23 12:57:34;;;;;;;;;;;;;;;4.91;49.29;101618.95;1731926;82;20193;-83
2022/01/23 12:59:59;;;;;;;;;;;;;;;4.87;49.12;101627.05;1733450;82;20634;-80
2022/01/23 13:02:30;;;;;;;;;;;;;;;4.96;49.46;101624.77;1717216;82;20928;-81
2022/01/23 13:04:54;;;;;;;;;;;;;;;5.27;49.32;101619.63;1726078;82;20170;-78
2022/01/23 13:07:39;;;;;;;;;;;;;;;5.06;48.76;101626.41;1723659;82;20225;-80
2022/01/23 13:10:50;;;;;;;;;;;;;;;5.27;49.55;101625.70;1726107;80;20185;-79
2022/01/23 13:12:48;;;;;;;;;;;;;;;5.61;49.71;101625.56;1721792;82;20449;-82
2022/01/23 13:18:10;;;;;;;;;;;;;;;5.75;48.85;101636.96;1730166;82;20119;-78
2022/01/23 13:26:38;;;;;;;;;;;;;;;5.77;47.58;101642.59;1714279;82;20107;-79
2022/01/23 13:31:43;;;;;;;;;;;;;;;6.28;47.47;101644.44;1733653;82;20158;-79
2022/01/23 13:34:25;;;;;;;;;;;;;;;6.40;46.69;101642.84;1732818;82;20294;-79
2022/01/23 13:37:01;;;;;;;;;;;;;;;6.44;46.44;101639.95;1730064;82;20201;-79
2022/01/23 13:39:37;;;;;;;;;;;;;;;6.75;47.93;101637.25;1730049;82;21146;-77
2022/01/23 13:48:38;;;;;;;;;;;;;;;6.56;44.76;101636.22;1726056;82;20127;-79
2022/01/23 13:53:27;;;;;;;;;;;;;;;6.18;45.16;101648.53;1713160;81;20229;-78
2022/01/23 13:58:38;;;;;;;;;;;;;;;6.49;45.03;101639.66;1741027;80;20152;-81
2022/01/23 14:01:34;;;;;;;;;;;;;;;6.73;44.78;101647.84;1737787;80;20136;-79
2022/01/23 14:03:45;;;;;;;;;;;;;;;6.88;44.09;101647.83;1723840;81;20098;-78
2022/01/23 14:06:13;;;;;;;;;;;;;;;6.57;43.99;101654.95;1727695;82;21243;-78
2022/01/23 14:08:41;;;;;;;;;;;;;;;6.87;44.00;101651.38;1727612;82;20168;-78
2022/01/23 14:11:07;;;;;;;;;;;;;;;7.35;43.22;101662.40;1729407;82;20187;-79
2022/01/23 14:13:33;;;;;;;;;;;;;;;7.90;42.64;101662.73;1728361;82;20178;-77
2022/01/23 14:16:00;;;;;;;;;;;;;;;8.30;41.07;101655.30;1716830;81;20198;-80
2022/01/23 14:18:30;;;;;;;;;;;;;;;8.45;40.54;101663.94;1724454;82;21013;-79
2022/01/23 14:21:06;;;;;;;;;;;;;;;8.06;40.43;101665.66;1730893;82;20137;-79
2022/01/23 14:23:33;;;;;;;;;;;;;;;7.83;40.73;101668.50;1709945;82;20211;-81
2022/01/23 14:26:01;;;;;;;;;;;;;;;9.44;38.45;101662.31;1735571;82;20226;-78
2022/01/23 14:28:39;;;;;;;;;;;;;;;11.63;34.75;101664.01;1727252;81;21261;-79
2022/01/23 14:31:23;;;;;;;;;;;;;;;12.63;33.89;101671.57;1724718;82;21815;-78
2022/01/23 14:33:51;;;;;;;;;;;;;;;13.21;31.33;101674.91;1726293;82;21014;-79
2022/01/23 14:36:22;;;;;;;;;;;;;;;13.02;31.53;101682.80;1719162;81;20520;-80
2022/01/23 14:39:03;;;;;;;;;;;;;;;12.43;32.09;101682.55;1715169;81;20180;-80
2022/01/23 14:41:33;;;;;;;;;;;;;;;12.24;31.95;101681.91;1737448;81;20173;-79
2022/01/23 14:44:05;;;;;;;;;;;;;;;11.98;32.35;101689.42;1748533;81;21340;-79
2022/01/23 14:46:30;;;;;;;;;;;;;;;11.84;32.90;101687.39;1731029;82;20193;-81
2022/01/23 14:49:00;;;;;;;;;;;;;;;11.09;33.89;101689.02;1733945;82;20606;-78
2022/01/23 14:51:26;;;;;;;;;;;;;;;10.21;34.56;101688.30;1724035;82;20508;-79
2022/01/23 14:53:52;;;;;;;;;;;;;;;9.09;36.42;101690.70;1728208;81;20234;-78
2022/01/23 14:56:20;;;;;;;;;;;;;;;8.97;37.46;101695.90;1707561;82;21071;-78
2022/01/23 14:58:46;;;;;;;;;;;;;;;8.95;37.51;101696.48;1726511;82;20166;-75
2022/01/23 15:01:14;;;;;;;;;;;;;;;8.58;37.97;101683.23;1726070;81;20134;-77
2022/01/23 15:03:47;;;;;;;;;;;;;;;8.14;38.55;101687.06;1729619;82;20493;-77
2022/01/23 15:06:12;;;;;;;;;;;;;;;7.71;39.55;101685.46;1726232;81;20181;-75
2022/01/23 15:08:38;;;;;;;;;;;;;;;7.23;40.21;101682.88;1728120;82;21175;-82
2022/01/23 15:11:04;;;;;;;;;;;;;;;6.61;41.36;101682.71;1726666;83;20195;-77
2022/01/23 15:13:31;;;;;;;;;;;;;;;6.55;41.74;101683.08;1726109;82;20147;-82
2022/01/23 15:15:56;;;;;;;;;;;;;;;6.02;42.50;101686.14;1732097;82;20606;-75
2022/01/23 15:18:22;;;;;;;;;;;;;;;5.93;42.89;101678.77;1727561;82;20183;-76
2022/01/23 15:20:48;;;;;;;;;;;;;;;6.02;42.83;101680.90;1727999;82;21190;-77
2022/01/23 15:23:14;;;;;;;;;;;;;;;5.94;43.02;101683.09;1729852;81;20307;-78
2022/01/23 15:25:40;;;;;;;;;;;;;;;5.85;43.20;101688.86;1730934;81;20198;-80
2022/01/23 15:28:06;;;;;;;;;;;;;;;5.78;43.26;101688.38;1705754;81;20994;-77
2022/01/23 15:30:33;;;;;;;;;;;;;;;5.44;43.77;101694.64;1727710;82;20264;-76
2022/01/23 15:33:02;;;;;;;;;;;;;;;5.31;44.18;101690.06;1725643;81;20131;-77
2022/01/23 15:35:29;;;;;;;;;;;;;;;5.07;44.69;101700.11;1724759;82;20194;-80
2022/01/23 15:37:55;;;;;;;;;;;;;;;5.13;44.59;101706.34;1714440;82;20211;-75
2022/01/23 15:40:20;;;;;;;;;;;;;;;4.80;45.10;101715.49;1729088;82;20574;-75
2022/01/23 15:42:47;;;;;;;;;;;;;;;4.89;45.06;101712.40;1728252;82;20134;-76
2022/01/23 15:45:13;;;;;;;;;;;;;;;4.93;45.10;101717.86;1706477;83;21192;-74
2022/01/23 15:47:39;;;;;;;;;;;;;;;4.66;45.45;101718.38;1726466;81;20944;-75
2022/01/23 15:50:08;;;;;;;;;;;;;;;4.27;46.35;101726.02;1718267;82;20162;-75
2022/01/23 15:52:33;;;;;;;;;;;;;;;4.08;47.08;101727.38;1736876;82;20202;-81
2022/01/23 15:55:01;;;;;;;;;;;;;;;3.92;47.45;101731.20;1728510;81;20145;-79
2022/01/23 15:57:28;;;;;;;;;;;;;;;3.68;48.07;101733.67;1733173;82;20123;-75
2022/01/23 15:59:53;;;;;;;;;;;;;;;3.62;48.41;101740.48;1729207;81;21732;-77
2022/01/23 16:02:19;;;;;;;;;;;;;;;3.58;48.44;101735.41;1731404;80;20162;-79